createdAt,value
2018-12-21T00:00:09.395Z,2.60
2018-12-21T00:02:36.446Z,2.40
2018-12-21T00:05:04.168Z,2.83
2018-12-21T00:07:31.389Z,2.30
2018-12-21T00:09:58.470Z,3.30
2018-12-21T00:12:25.656Z,3.10
2018-12-21T00:14:52.743Z,2.03
2018-12-21T00:17:19.955Z,1.90
2018-12-21T00:19:47.805Z,2.50
2018-12-21T00:22:14.909Z,2.10
2018-12-21T00:24:41.996Z,2.27
2018-12-21T00:27:09.129Z,2.00
2018-12-21T00:29:36.731Z,2.07
2018-12-21T00:32:09.714Z,2.33
2018-12-21T00:34:42.620Z,2.30
2018-12-21T00:37:15.377Z,2.23
2018-12-21T00:39:48.101Z,2.00
2018-12-21T00:43:21.448Z,2.30
2018-12-21T00:45:53.186Z,1.97
2018-12-21T00:48:20.427Z,2.13
2018-12-21T00:50:47.520Z,3.03
2018-12-21T00:53:14.640Z,2.37
2018-12-21T00:55:41.684Z,2.23
2018-12-21T00:58:08.740Z,1.70
2018-12-21T01:00:35.794Z,1.70
2018-12-21T01:03:03.002Z,2.13
2018-12-21T01:05:30.096Z,1.90
2018-12-21T01:07:57.236Z,1.60
2018-12-21T01:10:24.344Z,2.00
2018-12-21T01:12:51.401Z,2.07
2018-12-21T01:15:18.501Z,1.90
2018-12-21T01:17:45.576Z,2.33
2018-12-21T01:20:12.758Z,2.60
2018-12-21T01:22:39.794Z,2.20
2018-12-21T01:25:06.873Z,2.60
2018-12-21T01:27:34.011Z,2.00
2018-12-21T01:30:01.245Z,2.47
2018-12-21T01:32:28.383Z,2.53
2018-12-21T01:34:55.462Z,2.57
2018-12-21T01:37:22.673Z,2.70
2018-12-21T01:39:50.280Z,3.10
2018-12-21T01:42:17.349Z,2.60
2018-12-21T01:44:44.404Z,2.40
2018-12-21T01:47:11.598Z,2.47
2018-12-21T01:49:38.707Z,2.33
2018-12-21T01:52:06.007Z,2.43
2018-12-21T01:54:33.067Z,2.67
2018-12-21T01:57:00.117Z,2.70
2018-12-21T01:59:27.200Z,2.73
2018-12-21T02:01:54.319Z,2.73
2018-12-21T02:04:21.498Z,2.90
2018-12-21T02:06:48.522Z,2.40
2018-12-21T02:09:16.152Z,2.50
2018-12-21T02:11:43.199Z,2.10
2018-12-21T02:14:10.245Z,2.47
2018-12-21T02:16:37.296Z,2.27
2018-12-21T02:19:04.623Z,2.53
2018-12-21T02:21:31.691Z,2.57
2018-12-21T02:23:58.845Z,2.27
2018-12-21T02:26:25.925Z,2.47
2018-12-21T02:28:52.952Z,2.37
2018-12-21T02:31:20.047Z,2.23
2018-12-21T02:33:47.097Z,2.00
2018-12-21T02:36:14.198Z,2.50
2018-12-21T02:38:41.276Z,2.07
2018-12-21T02:41:08.466Z,1.87
2018-12-21T02:43:35.708Z,2.33
2018-12-21T02:46:02.808Z,2.60
2018-12-21T02:48:30.453Z,2.17
2018-12-21T02:50:58.571Z,2.20
2018-12-21T02:53:25.648Z,2.57
2018-12-21T02:55:52.785Z,2.30
2018-12-21T02:58:19.883Z,2.23
2018-12-21T03:00:48.578Z,2.10
2018-12-21T03:03:16.518Z,2.60
2018-12-21T03:05:43.742Z,2.33
2018-12-21T03:08:10.853Z,2.40
2018-12-21T03:10:37.927Z,3.33
2018-12-21T03:13:05.026Z,1.53
2018-12-21T03:15:32.229Z,2.40
2018-12-21T03:17:59.426Z,2.30
2018-12-21T03:20:27.407Z,2.13
2018-12-21T03:22:54.538Z,2.50
2018-12-21T03:25:21.648Z,1.90
2018-12-21T03:27:48.771Z,2.40
2018-12-21T03:30:15.857Z,2.60
2018-12-21T03:32:42.939Z,2.17
2018-12-21T03:35:10.134Z,1.87
2018-12-21T03:37:37.239Z,2.53
2018-12-21T03:40:04.903Z,2.10
2018-12-21T03:42:31.994Z,2.40
2018-12-21T03:44:59.088Z,2.07
2018-12-21T03:47:26.392Z,2.17
2018-12-21T03:49:53.496Z,2.33
2018-12-21T03:52:24.551Z,2.20
2018-12-21T03:54:49.748Z,1.93
2018-12-21T03:57:16.957Z,1.60
2018-12-21T03:59:45.236Z,1.70
2018-12-21T04:02:12.316Z,2.00
2018-12-21T04:04:39.418Z,1.93
2018-12-21T04:07:06.447Z,1.50
2018-12-21T04:09:33.556Z,1.73
2018-12-21T04:12:00.626Z,1.70
2018-12-21T04:14:27.851Z,1.63
2018-12-21T04:16:55.052Z,1.40
2018-12-21T04:19:22.244Z,1.77
2018-12-21T04:21:49.329Z,1.50
2018-12-21T04:24:16.727Z,1.27
2018-12-21T04:26:43.795Z,1.20
2018-12-21T04:29:11.799Z,1.57
2018-12-21T04:31:38.933Z,1.50
2018-12-21T04:34:06.014Z,1.60
2018-12-21T04:36:33.068Z,1.30
2018-12-21T04:39:00.722Z,1.60
2018-12-21T04:41:27.766Z,1.50
2018-12-21T04:43:54.892Z,1.37
2018-12-21T04:46:22.072Z,1.40
2018-12-21T04:48:49.147Z,1.20
2018-12-21T04:51:16.231Z,1.27
2018-12-21T04:53:43.284Z,1.30
2018-12-21T04:56:10.408Z,1.20
2018-12-21T04:58:37.444Z,0.90
2018-12-21T05:01:04.561Z,1.10
2018-12-21T05:03:31.743Z,1.20
2018-12-21T05:05:58.836Z,1.10
2018-12-21T05:08:25.935Z,1.03
2018-12-21T05:10:54.500Z,1.47
2018-12-21T05:13:21.779Z,1.30
2018-12-21T05:15:48.887Z,1.10
2018-12-21T05:18:15.946Z,1.40
2018-12-21T05:20:43.258Z,1.27
2018-12-21T05:23:10.330Z,1.43
2018-12-21T05:25:37.403Z,1.03
2018-12-21T05:28:04.501Z,1.30
2018-12-21T05:30:32.744Z,1.43
2018-12-21T05:33:00.344Z,1.40
2018-12-21T05:35:27.418Z,1.20
2018-12-21T05:37:54.516Z,1.10
2018-12-21T05:40:21.562Z,1.00
2018-12-21T05:42:48.651Z,1.00
2018-12-21T05:45:15.951Z,1.00
2018-12-21T05:47:43.027Z,0.90
2018-12-21T05:50:10.143Z,1.00
2018-12-21T05:52:37.461Z,1.07
2018-12-21T05:55:04.540Z,0.90
2018-12-21T05:57:31.730Z,0.90
2018-12-21T05:59:58.815Z,0.90
2018-12-21T06:02:25.924Z,1.20
2018-12-21T06:04:53.643Z,1.20
2018-12-21T06:07:20.729Z,1.03
2018-12-21T06:09:47.959Z,0.93
2018-12-21T06:12:15.708Z,1.00
2018-12-21T06:14:42.873Z,1.07
2018-12-21T06:17:10.066Z,1.13
2018-12-21T06:19:37.194Z,0.90
2018-12-21T06:22:05.111Z,0.90
2018-12-21T06:24:32.322Z,0.70
2018-12-21T06:26:59.472Z,0.90
2018-12-21T06:29:26.557Z,0.80
2018-12-21T06:31:53.633Z,0.90
2018-12-21T06:34:20.726Z,0.80
2018-12-21T06:36:47.851Z,1.00
2018-12-21T06:39:15.131Z,1.17
2018-12-21T06:41:42.328Z,0.87
2018-12-21T06:44:09.404Z,0.80
2018-12-21T06:46:36.580Z,1.00
2018-12-21T06:49:03.791Z,0.90
2018-12-21T06:51:30.831Z,0.80
2018-12-21T06:53:58.032Z,1.10
2018-12-21T06:56:25.229Z,0.70
2018-12-21T06:58:52.435Z,0.70
2018-12-21T07:01:19.572Z,0.70
2018-12-21T07:03:47.199Z,0.73
2018-12-21T07:06:15.004Z,0.80
2018-12-21T07:08:42.171Z,0.70
2018-12-21T07:11:09.952Z,0.70
2018-12-21T07:13:37.096Z,1.10
2018-12-21T07:16:04.240Z,0.90
2018-12-21T07:18:31.668Z,0.63
2018-12-21T07:20:58.823Z,0.80
2018-12-21T07:23:27.307Z,0.70
2018-12-21T07:25:54.807Z,0.90
2018-12-21T07:28:22.676Z,0.80
2018-12-21T07:30:49.800Z,0.83
2018-12-21T07:33:17.617Z,0.90
2018-12-21T07:35:44.864Z,0.70
2018-12-21T07:38:12.124Z,0.70
2018-12-21T07:40:39.247Z,0.70
2018-12-21T07:43:06.393Z,0.90
2018-12-21T07:45:33.592Z,0.80
2018-12-21T07:48:00.671Z,0.80
2018-12-21T07:50:27.811Z,0.87
2018-12-21T07:52:58.479Z,0.90
2018-12-21T07:55:25.659Z,0.80
2018-12-21T07:57:53.010Z,0.60
2018-12-21T08:00:20.279Z,0.87
2018-12-21T08:02:47.488Z,0.77
2018-12-21T08:05:14.566Z,0.80
2018-12-21T08:07:41.723Z,0.80
2018-12-21T08:10:16.026Z,1.00
2018-12-21T08:12:43.120Z,0.70
2018-12-21T08:15:10.344Z,0.67
2018-12-21T08:17:37.599Z,0.83
2018-12-21T08:20:05.563Z,0.90
2018-12-21T08:22:32.835Z,0.70
2018-12-21T08:25:00.214Z,0.97
2018-12-21T08:27:28.415Z,0.73
2018-12-21T08:29:56.194Z,0.90
2018-12-21T08:32:23.996Z,0.70
2018-12-21T08:34:51.313Z,0.70
2018-12-21T08:37:18.420Z,0.60
2018-12-21T08:39:45.612Z,0.70
2018-12-21T08:42:12.782Z,0.60
2018-12-21T08:44:40.040Z,0.60
2018-12-21T08:47:07.247Z,1.00
2018-12-21T08:49:34.860Z,1.13
2018-12-21T08:52:02.206Z,0.70
2018-12-21T08:54:29.363Z,0.63
2018-12-21T08:56:56.603Z,0.60
2018-12-21T08:59:25.186Z,0.60
2018-12-21T09:01:52.896Z,0.70
2018-12-21T09:04:20.110Z,1.47
2018-12-21T09:06:47.293Z,0.80
2018-12-21T09:09:14.713Z,0.70
2018-12-21T09:11:42.703Z,0.70
2018-12-21T09:14:10.554Z,0.60
2018-12-21T09:16:37.694Z,0.60
2018-12-21T09:19:04.832Z,0.80
2018-12-21T09:21:32.069Z,1.00
2018-12-21T09:24:01.081Z,0.70
2018-12-21T09:26:28.949Z,0.57
2018-12-21T09:28:56.426Z,0.70
2018-12-21T09:31:24.336Z,0.53
2018-12-21T09:33:53.692Z,0.80
2018-12-21T09:36:20.852Z,0.90
2018-12-21T09:38:48.021Z,1.13
2018-12-21T09:41:15.575Z,0.77
2018-12-21T09:43:42.913Z,0.80
2018-12-21T09:46:10.063Z,0.70
2018-12-21T09:48:37.312Z,0.97
2018-12-21T09:51:05.169Z,0.70
2018-12-21T09:53:32.251Z,0.70
2018-12-21T09:55:59.366Z,1.13
2018-12-21T09:58:26.492Z,0.60
2018-12-21T10:00:53.591Z,0.60
2018-12-21T10:03:20.969Z,0.60
2018-12-21T10:05:48.719Z,0.90
2018-12-21T10:08:16.319Z,0.70
2018-12-21T10:10:43.601Z,1.00
2018-12-21T10:13:10.795Z,0.73
2018-12-21T10:15:37.943Z,0.60
2018-12-21T10:18:05.281Z,0.80
2018-12-21T10:20:32.469Z,0.80
2018-12-21T10:22:59.578Z,0.83
2018-12-21T10:25:26.865Z,0.70
2018-12-21T10:27:54.079Z,0.90
2018-12-21T10:30:21.216Z,0.60
2018-12-21T10:32:49.184Z,0.70
2018-12-21T10:35:16.844Z,0.80
2018-12-21T10:37:44.029Z,0.53
2018-12-21T10:40:11.339Z,0.60
2018-12-21T10:42:38.501Z,0.50
2018-12-21T10:45:05.952Z,0.80
2018-12-21T10:47:33.057Z,0.60
2018-12-21T10:50:00.156Z,0.87
2018-12-21T10:52:27.264Z,0.87
2018-12-21T10:54:54.480Z,0.67
2018-12-21T10:57:21.664Z,0.60
2018-12-21T10:59:48.939Z,0.70
2018-12-21T11:02:17.443Z,1.13
2018-12-21T11:04:44.603Z,0.60
2018-12-21T11:07:11.877Z,0.50
2018-12-21T11:09:39.129Z,0.90
2018-12-21T11:12:06.256Z,0.70
2018-12-21T11:14:33.376Z,0.60
2018-12-21T11:17:00.532Z,0.60
2018-12-21T11:19:27.692Z,0.70
2018-12-21T11:21:54.852Z,0.50
2018-12-21T11:24:22.560Z,0.60
2018-12-21T11:26:49.806Z,0.60
2018-12-21T11:29:17.023Z,0.70
2018-12-21T11:31:45.135Z,0.70
2018-12-21T11:34:12.242Z,0.60
2018-12-21T11:36:39.383Z,0.70
2018-12-21T11:39:06.616Z,0.67
2018-12-21T11:41:34.622Z,0.80
2018-12-21T11:44:03.656Z,0.60
2018-12-21T11:46:30.970Z,0.70
2018-12-21T11:48:58.198Z,0.60
2018-12-21T11:51:25.325Z,0.70
2018-12-21T11:53:52.551Z,0.60
2018-12-21T11:56:19.774Z,0.70
2018-12-21T11:58:46.924Z,0.70
2018-12-21T12:01:14.064Z,0.90
2018-12-21T12:03:41.212Z,0.70
2018-12-21T12:06:08.345Z,0.70
2018-12-21T12:08:36.149Z,0.60
2018-12-21T12:11:04.219Z,0.80
2018-12-21T12:13:31.457Z,0.60
2018-12-21T12:16:01.652Z,0.90
2018-12-21T12:18:28.875Z,0.97
2018-12-21T12:20:56.844Z,0.80
2018-12-21T12:23:24.198Z,0.80
2018-12-21T12:25:51.344Z,0.83
2018-12-21T12:28:18.492Z,0.80
2018-12-21T12:30:45.624Z,0.70
2018-12-21T12:33:12.814Z,0.77
2018-12-21T12:35:40.234Z,0.80
2018-12-21T12:38:07.567Z,1.30
2018-12-21T12:40:34.654Z,0.70
2018-12-21T12:43:01.756Z,0.70
2018-12-21T12:45:28.872Z,0.70
2018-12-21T12:47:56.163Z,0.60
2018-12-21T12:50:24.559Z,0.87
2018-12-21T12:52:51.880Z,0.97
2018-12-21T12:55:19.083Z,0.80
2018-12-21T12:57:46.211Z,1.00
2018-12-21T13:00:15.347Z,0.90
2018-12-21T13:02:42.440Z,0.60
2018-12-21T13:05:09.655Z,0.70
2018-12-21T13:07:36.903Z,1.50
2018-12-21T13:10:06.304Z,0.67
2018-12-21T13:12:34.239Z,0.70
2018-12-21T13:15:01.443Z,0.60
2018-12-21T13:17:29.059Z,0.90
2018-12-21T13:19:56.253Z,0.70
2018-12-21T13:22:24.088Z,0.90
2018-12-21T13:24:51.280Z,0.90
2018-12-21T13:27:18.468Z,0.60
2018-12-21T13:29:45.660Z,0.70
2018-12-21T13:32:12.806Z,0.70
2018-12-21T13:34:40.176Z,0.90
2018-12-21T13:37:07.321Z,0.63
2018-12-21T13:39:34.529Z,0.80
2018-12-21T13:42:01.682Z,0.83
2018-12-21T13:44:28.887Z,0.60
2018-12-21T13:46:56.081Z,0.87
2018-12-21T13:49:23.225Z,0.80
2018-12-21T13:51:50.389Z,0.60
2018-12-21T13:54:17.568Z,0.70
2018-12-21T13:56:44.738Z,0.70
2018-12-21T13:59:12.028Z,1.00
2018-12-21T14:01:39.180Z,0.90
2018-12-21T14:04:06.410Z,0.90
2018-12-21T14:06:33.548Z,1.00
2018-12-21T14:09:00.785Z,0.70
2018-12-21T14:11:28.052Z,1.30
2018-12-21T14:13:56.297Z,0.70
2018-12-21T14:16:23.471Z,0.80
2018-12-21T14:18:50.581Z,0.80
2018-12-21T14:21:17.816Z,0.90
2018-12-21T14:23:45.589Z,1.10
2018-12-21T14:26:12.717Z,0.90
2018-12-21T14:28:39.812Z,1.80
2018-12-21T14:31:07.552Z,1.17
2018-12-21T14:33:35.756Z,1.20
2018-12-21T14:36:03.719Z,0.80
2018-12-21T14:38:30.867Z,0.80
2018-12-21T14:40:57.968Z,1.27
2018-12-21T14:43:25.677Z,1.50
2018-12-21T14:45:52.846Z,0.80
2018-12-21T14:48:20.086Z,0.90
2018-12-21T14:50:47.261Z,0.80
2018-12-21T14:53:14.390Z,1.20
2018-12-21T14:55:41.562Z,0.93
2018-12-21T14:58:08.693Z,0.90
2018-12-21T15:00:35.811Z,1.00
2018-12-21T15:03:03.775Z,1.47
2018-12-21T15:05:30.928Z,0.97
2018-12-21T15:07:58.280Z,0.80
2018-12-21T15:10:25.855Z,0.80
2018-12-21T15:12:53.561Z,0.63
2018-12-21T15:15:20.927Z,0.60
2018-12-21T15:17:48.072Z,0.80
2018-12-21T15:20:15.325Z,0.60
2018-12-21T15:22:42.504Z,0.80
2018-12-21T15:25:09.607Z,0.70
2018-12-21T15:27:36.844Z,0.60
2018-12-21T15:30:06.853Z,0.50
2018-12-21T15:32:33.994Z,0.70
2018-12-21T15:35:01.057Z,0.60
2018-12-21T15:37:28.791Z,0.70
2018-12-21T15:39:55.921Z,0.70
2018-12-21T15:42:23.092Z,0.90
2018-12-21T15:44:50.317Z,1.00
2018-12-21T15:47:17.467Z,0.90
2018-12-21T15:49:45.352Z,0.93
2018-12-21T15:52:12.420Z,1.00
2018-12-21T15:54:40.253Z,0.90
2018-12-21T15:57:08.505Z,1.03
2018-12-21T15:59:36.658Z,0.80
2018-12-21T16:02:03.886Z,0.80
2018-12-21T16:04:31.102Z,0.90
2018-12-21T16:06:58.277Z,0.90
2018-12-21T16:09:25.402Z,0.90
2018-12-21T16:11:54.066Z,0.80
2018-12-21T16:14:21.910Z,0.67
2018-12-21T16:16:49.318Z,1.00
2018-12-21T16:19:17.040Z,0.97
2018-12-21T16:21:44.761Z,0.80
2018-12-21T16:24:11.863Z,1.00
2018-12-21T16:26:38.975Z,0.80
2018-12-21T16:29:07.215Z,0.70
2018-12-21T16:31:34.775Z,0.90
2018-12-21T16:34:02.109Z,0.90
2018-12-21T16:36:29.325Z,1.17
2018-12-21T16:38:56.687Z,1.10
2018-12-21T16:41:23.802Z,0.70
2018-12-21T16:43:52.448Z,0.87
2018-12-21T16:46:19.695Z,1.40
2018-12-21T16:48:47.336Z,0.90
2018-12-21T16:51:14.758Z,1.20
2018-12-21T16:53:42.028Z,1.30
2018-12-21T16:56:12.635Z,1.17
2018-12-21T16:58:38.349Z,1.20
2018-12-21T17:01:05.499Z,1.00
2018-12-21T17:03:32.744Z,1.20
2018-12-21T17:06:00.122Z,1.33
2018-12-21T17:08:27.389Z,1.40
2018-12-21T17:10:54.567Z,2.37
2018-12-21T17:13:21.764Z,1.37
2018-12-21T17:15:49.175Z,1.57
2018-12-21T17:18:16.804Z,1.33
2018-12-21T17:20:44.176Z,1.40
2018-12-21T17:23:11.473Z,1.40
2018-12-21T17:25:38.637Z,1.70
2018-12-21T17:28:05.824Z,1.97
2018-12-21T17:30:33.067Z,1.90
2018-12-21T17:33:00.372Z,1.70
2018-12-21T17:35:27.584Z,1.93
2018-12-21T17:37:54.768Z,1.77
2018-12-21T17:40:21.985Z,1.93
2018-12-21T17:42:49.100Z,1.90
2018-12-21T17:45:16.249Z,1.73
2018-12-21T17:47:43.396Z,1.70
2018-12-21T17:50:11.242Z,2.13
2018-12-21T17:52:38.327Z,2.03
2018-12-21T17:55:07.194Z,2.00
2018-12-21T17:57:34.316Z,1.40
2018-12-21T18:00:01.416Z,1.97
2018-12-21T18:02:28.551Z,2.10
2018-12-21T18:04:55.649Z,2.07
2018-12-21T18:07:22.780Z,1.77
2018-12-21T18:09:49.847Z,1.80
2018-12-21T18:12:17.612Z,1.90
2018-12-21T18:14:45.770Z,1.50
2018-12-21T18:17:12.903Z,1.40
2018-12-21T18:19:40.083Z,1.63
2018-12-21T18:22:15.295Z,1.33
2018-12-21T18:24:42.604Z,1.60
2018-12-21T18:27:09.745Z,1.83
2018-12-21T18:29:38.969Z,1.43
2018-12-21T18:32:13.016Z,1.40
2018-12-21T18:34:40.129Z,1.40
2018-12-21T18:37:08.841Z,1.17
2018-12-21T18:39:35.912Z,1.00
2018-12-21T18:42:05.725Z,1.30
2018-12-21T18:44:33.080Z,1.30
2018-12-21T18:47:01.057Z,1.33
2018-12-21T18:49:28.325Z,1.10
2018-12-21T18:51:55.431Z,1.20
2018-12-21T18:54:22.740Z,1.50
2018-12-21T18:56:57.372Z,2.43
2018-12-21T18:59:24.607Z,1.40
2018-12-21T19:01:51.741Z,1.60
2018-12-21T19:04:18.809Z,1.47
2018-12-21T19:06:45.959Z,1.40
2018-12-21T19:09:13.047Z,1.73
2018-12-21T19:11:40.199Z,1.50
2018-12-21T19:14:07.548Z,1.00
2018-12-21T19:16:34.870Z,2.00
2018-12-21T19:19:02.175Z,1.90
2018-12-21T19:21:29.755Z,1.60
2018-12-21T19:23:56.864Z,1.40
2018-12-21T19:26:24.017Z,1.30
2018-12-21T19:28:51.168Z,1.70
2018-12-21T19:31:18.292Z,1.70
2018-12-21T19:33:45.614Z,1.47
2018-12-21T19:36:12.771Z,1.67
2018-12-21T19:41:14.293Z,1.50
2018-12-21T19:43:41.560Z,1.60
2018-12-21T19:46:08.702Z,1.40
2018-12-21T19:48:35.884Z,2.00
2018-12-21T19:51:03.201Z,1.47
2018-12-21T19:53:30.306Z,2.10
2018-12-21T19:56:39.336Z,2.77
2018-12-21T19:59:06.468Z,2.00
2018-12-21T20:01:34.538Z,1.93
2018-12-21T20:04:01.672Z,2.67
2018-12-21T20:06:29.213Z,1.97
2018-12-21T20:08:56.624Z,1.93
2018-12-21T20:11:23.789Z,1.30
2018-12-21T20:13:50.883Z,1.70
2018-12-21T20:16:19.389Z,3.53
2018-12-21T20:18:47.754Z,1.43
2018-12-21T20:21:15.133Z,1.60
2018-12-21T20:23:42.187Z,1.67
2018-12-21T20:26:09.280Z,1.73
2018-12-21T20:28:36.969Z,1.50
2018-12-21T20:31:04.829Z,1.70
2018-12-21T20:33:32.465Z,1.77
2018-12-21T20:35:59.784Z,2.00
2018-12-21T20:38:27.018Z,1.70
2018-12-21T20:40:54.432Z,1.70
2018-12-21T20:43:21.709Z,1.70
2018-12-21T20:45:49.231Z,1.70
2018-12-21T20:48:16.559Z,1.83
2018-12-21T20:50:44.426Z,1.80
2018-12-21T20:53:11.624Z,1.80
2018-12-21T20:55:38.720Z,1.50
2018-12-21T20:58:41.461Z,1.37
2018-12-21T21:01:08.678Z,1.40
2018-12-21T21:03:35.798Z,1.43
2018-12-21T21:06:03.000Z,1.20
2018-12-21T21:08:30.122Z,1.00
2018-12-21T21:10:57.471Z,1.70
2018-12-21T21:13:24.593Z,1.40
2018-12-21T21:15:51.823Z,1.80
2018-12-21T21:18:18.963Z,1.67
2018-12-21T21:20:46.232Z,2.07
2018-12-21T21:23:13.366Z,1.40
2018-12-21T21:25:40.459Z,1.80
2018-12-21T21:28:07.570Z,0.83
2018-12-21T21:30:36.564Z,1.23
2018-12-21T21:33:03.817Z,1.00
2018-12-21T21:35:31.015Z,1.33
2018-12-21T21:37:58.140Z,1.60
2018-12-21T21:40:25.271Z,1.50
2018-12-21T21:42:57.504Z,1.80
2018-12-21T21:45:21.565Z,1.50
2018-12-21T21:47:48.662Z,2.17
2018-12-21T21:50:16.517Z,1.50
2018-12-21T21:52:43.732Z,1.60
2018-12-21T21:55:10.882Z,2.03
2018-12-21T21:57:39.537Z,1.60
2018-12-21T22:00:10.551Z,1.70
2018-12-21T22:02:37.644Z,1.40
2018-12-21T22:05:04.747Z,1.77
2018-12-21T22:07:31.852Z,1.63
2018-12-21T22:09:58.976Z,1.70
2018-12-21T22:12:26.047Z,1.30
2018-12-21T22:14:53.224Z,1.93
2018-12-21T22:17:20.342Z,1.50
2018-12-21T22:19:47.372Z,1.63
2018-12-21T22:22:14.672Z,1.40
2018-12-21T22:24:41.880Z,1.53
2018-12-21T22:27:09.028Z,1.60
2018-12-21T22:29:36.197Z,1.60
2018-12-21T22:32:04.044Z,1.73
2018-12-21T22:34:31.261Z,1.60
2018-12-21T22:36:58.368Z,1.83
2018-12-21T22:39:25.476Z,1.40
2018-12-21T22:41:52.711Z,2.07
2018-12-21T22:44:19.892Z,2.20
2018-12-21T22:46:47.669Z,1.63
2018-12-21T22:49:14.742Z,2.40
2018-12-21T22:51:42.784Z,1.30
2018-12-21T22:54:10.154Z,2.60
2018-12-21T22:56:37.272Z,1.63
2018-12-21T22:59:04.367Z,2.30
2018-12-21T23:01:31.655Z,2.10
2018-12-21T23:03:58.888Z,2.00
2018-12-21T23:06:26.012Z,2.60
2018-12-21T23:08:53.175Z,1.90
2018-12-21T23:11:20.297Z,1.67
2018-12-21T23:13:47.695Z,1.40
2018-12-21T23:16:14.908Z,2.10
2018-12-21T23:18:42.027Z,2.17
2018-12-21T23:21:09.155Z,2.20
2018-12-21T23:23:36.272Z,1.90
2018-12-21T23:26:03.483Z,1.50
2018-12-21T23:28:30.608Z,2.53
2018-12-21T23:30:57.698Z,2.10
2018-12-21T23:33:24.856Z,2.23
2018-12-21T23:35:51.980Z,2.07
2018-12-21T23:38:19.198Z,1.80
2018-12-21T23:40:46.343Z,2.10
2018-12-21T23:43:13.739Z,2.77
2018-12-21T23:45:40.871Z,1.80
2018-12-21T23:48:08.063Z,1.90
2018-12-21T23:50:35.439Z,2.17
2018-12-21T23:53:02.766Z,2.03
2018-12-21T23:55:29.919Z,2.13
2018-12-21T23:57:57.356Z,2.63
